Identifiez vous afin de poster une observation
 • Tableaux des observations reportées par F4JFI - Page 1   

Tableaux des observations de F4JFI

F4JFI a posté 2447 observation(s).


Pages : 1 - 2 - 3 - 4 - 5 - 6 - 7 - 8 - 9 - 10 - 11 - 12 - 13 - 14 - 15 - 16 - 17 - 18 - 19 - 20 - 21 - 22 - 23 - 24 - 25 - 26 - 27 - 28 - 29 - 30 - 31 - 32 - 33 - 34 - 35 - 36 - 37 - 38 - 39 - 40 - 41 - 42 - 43 - 44 - 45 - 46 - 47 - 48 - 49 - 50 - 51 - 52 - 53 - 54 - 55 - 56 - 57 - 58 - 59 - 60 - 61 - 62 - 63 - 64 - 65 - 66 - 67 - 68 - 69 - 70 - 71 - 72 - 73 - 74 - 75 - 76 - 77 - 78 - 79 - 80 - 81 - 82 - 83 - 84 - 85 - 86 - 87 - 88 - 89 - 90 - 91 - 92 - 93 - 94 - 95 - 96 - 97 - 98 - 99 - 100 - 101 - 102 - 103 - 104 - 105 - 106 - 107 - 108 - 109 - 110 - 111 - 112 - 113 - 114 - 115 - 116 - 117 - 118 - 119 - 120 - 121 - 122 - 123 -

DateHeureVillePhénomènesCommentaireContact
28/09/202208:00Périgueux - Alt. 88mTempérature (15.2°C) Humidite : 93% Point de rosée : 14.08 C Pression : 1004 hPa Humidex : 18.6 2022-09-28 08:00:01F4JFI
28/09/202207:00Périgueux - Alt. 88mTempérature (15.1°C) Humidite : 94% Point de rosée : 14.14 C Pression : 1004 hPa Humidex : 18.5 2022-09-28 07:00:01F4JFI
28/09/202206:00Périgueux - Alt. 88mTempérature (14.9°C) Humidite : 94% Point de rosée : 13.94 C Pression : 1005 hPa Humidex : 18.2 2022-09-28 06:00:01F4JFI
28/09/202205:00Périgueux - Alt. 88mTempérature (15.2°C) Humidite : 94% Point de rosée : 14.24 C Pression : 1005 hPa Humidex : 18.7 2022-09-28 05:00:01F4JFI
28/09/202204:00Périgueux - Alt. 88mTempérature (15.6°C) Humidite : 93% Point de rosée : 14.47 C Pression : 1005 hPa Humidex : 19.2 2022-09-28 04:00:01F4JFI
28/09/202203:00Périgueux - Alt. 88mTempérature (15.8°C) Humidite : 93% Point de rosée : 14.67 C Pression : 1006 hPa Humidex : 19.6 2022-09-28 03:00:01F4JFI
28/09/202202:00Périgueux - Alt. 88mTempérature (15.9°C) Humidite : 94% Point de rosée : 14.94 C Pression : 1006 hPa Humidex : 19.8 2022-09-28 02:00:02F4JFI
28/09/202201:00Périgueux - Alt. 88mTempérature (15.5°C) Humidite : 94% Point de rosée : 14.54 C Pression : 1007 hPa Humidex : 19.2 2022-09-28 01:00:01F4JFI
28/09/202200:00Périgueux - Alt. 88mTempérature (15.2°C) Humidite : 93% Point de rosée : 14.08 C Pression : 1007 hPa Humidex : 18.6 2022-09-28 00:00:01F4JFI
27/09/202223:00Périgueux - Alt. 88mTempérature (14.8°C) Humidite : 92% Point de rosée : 13.51 C Pression : 1008 hPa Humidex : 17.9 2022-09-27 23:00:01F4JFI
27/09/202222:00Périgueux - Alt. 88mTempérature (15.1°C) Humidite : 88% Point de rosée : 13.13 C Pression : 1008 hPa Humidex : 18 2022-09-27 22:00:01F4JFI
27/09/202221:00Périgueux - Alt. 88mTempérature (15.5°C) Humidite : 82% Point de rosée : 12.44 C Pression : 1009 hPa Humidex : 18 2022-09-27 21:00:01F4JFI
27/09/202220:00Périgueux - Alt. 88mTempérature (16°C) Humidite : 77% Point de rosée : 11.97 C Pression : 1009 hPa Humidex : 18.2 2022-09-27 20:00:01F4JFI
27/09/202219:00Périgueux - Alt. 88mTempérature (16.6°C) Humidite : 71% Point de rosée : 11.32 C Pression : 1009 hPa Humidex : 18.5 2022-09-27 19:00:01F4JFI
27/09/202218:00Périgueux - Alt. 88mTempérature (17.8°C) Humidite : 65% Point de rosée : 11.13 C Pression : 1009 hPa Humidex : 19.6 2022-09-27 18:00:01F4JFI
27/09/202217:00Périgueux - Alt. 88mTempérature (17.2°C) Humidite : 74% Point de rosée : 12.52 C Pression : 1009 hPa Humidex : 19.7 2022-09-27 17:00:01F4JFI
27/09/202216:00Périgueux - Alt. 88mTempérature (15.4°C) Humidite : 83% Point de rosée : 12.53 C Pression : 1010 hPa Humidex : 17.9 2022-09-27 16:00:01F4JFI
27/09/202215:00Périgueux - Alt. 88mTempérature (16.1°C) Humidite : 78% Point de rosée : 12.26 C Pression : 1010 hPa Humidex : 18.5 2022-09-27 15:00:01F4JFI
27/09/202214:00Périgueux - Alt. 88mTempérature (15.2°C) Humidite : 78% Point de rosée : 11.39 C Pression : 1010 hPa Humidex : 17.1 2022-09-27 14:00:01F4JFI
27/09/202213:00Périgueux - Alt. 88mTempérature (15.7°C) Humidite : 69% Point de rosée : 10.03 C Pression : 1011 hPa Humidex : 17 2022-09-27 13:00:01F4JFI


Meteociel™ | © 2004 - 2022 | Forums Météo | Prévi Paris | Paramètres des cookies | Cookies | Média - Meteociel | Mentions légales | Contact